Time;durP1;ratioP1;P1;durP2;ratioP2;P2;SDS_P1;SDS_P2;PMS_P1;PMS_P2;Temp;Humidity;BMP_temperature;BMP_pressure;BME280_temperature;BME280_humidity;BME280_pressure;Samples;Min_cycle;Max_cycle;Signal;HPM_P1;HPM_P2
2024/03/17 00:01:20;;;;;;;1.30;1.20;;;;;;;;;;6243433;22;20193;-48
2024/03/17 00:03:47;;;;;;;1.00;1.00;;;;;;;;;;6243611;22;20179;-49
2024/03/17 00:06:14;;;;;;;1.90;1.23;;;;;;;;;;6243587;22;20675;-47
2024/03/17 00:08:43;;;;;;;2.33;1.30;;;;;;;;;;6243865;22;20733;-49
2024/03/17 00:11:09;;;;;;;1.33;1.23;;;;;;;;;;6243782;22;20175;-47
2024/03/17 00:13:36;;;;;;;1.20;1.10;;;;;;;;;;6243429;22;20510;-48
2024/03/17 00:16:04;;;;;;;1.83;1.48;;;;;;;;;;6243401;22;20173;-48
2024/03/17 00:18:32;;;;;;;1.20;1.10;;;;;;;;;;6243450;23;20201;-48
2024/03/17 00:20:59;;;;;;;4.65;1.90;;;;;;;;;;6243289;22;20173;-48
2024/03/17 00:23:28;;;;;;;1.70;1.17;;;;;;;;;;6243554;23;20256;-49
2024/03/17 00:25:56;;;;;;;0.98;0.98;;;;;;;;;;6243916;22;20505;-51
2024/03/17 00:28:24;;;;;;;2.20;1.52;;;;;;;;;;6243895;22;20204;-49
2024/03/17 00:30:51;;;;;;;1.60;1.45;;;;;;;;;;6246212;23;20173;-49
2024/03/17 00:33:19;;;;;;;2.10;1.60;;;;;;;;;;6245132;22;20173;-49
2024/03/17 00:35:45;;;;;;;2.97;1.88;;;;;;;;;;6245793;22;20642;-48
2024/03/17 00:38:13;;;;;;;2.67;1.38;;;;;;;;;;6245390;22;20821;-48
2024/03/17 00:40:41;;;;;;;1.20;1.10;;;;;;;;;;6245623;22;20173;-47
2024/03/17 00:43:11;;;;;;;1.60;1.50;;;;;;;;;;6245633;23;20272;-52
2024/03/17 00:45:37;;;;;;;1.58;1.40;;;;;;;;;;6244566;22;20779;-48
2024/03/17 00:48:07;;;;;;;2.28;1.60;;;;;;;;;;6245321;22;20203;-50
2024/03/17 00:50:33;;;;;;;1.67;1.58;;;;;;;;;;6246340;23;20626;-48
2024/03/17 00:53:03;;;;;;;1.50;1.40;;;;;;;;;;6244939;22;20169;-49
2024/03/17 00:55:29;;;;;;;3.25;1.63;;;;;;;;;;6246066;23;20180;-47
2024/03/17 00:57:57;;;;;;;1.90;1.70;;;;;;;;;;6245437;22;20272;-51
2024/03/17 01:00:24;;;;;;;2.53;1.83;;;;;;;;;;6245289;22;20200;-53
2024/03/17 01:02:52;;;;;;;1.73;1.63;;;;;;;;;;6244624;22;20216;-53
2024/03/17 01:05:18;;;;;;;1.48;1.38;;;;;;;;;;6245307;22;20193;-49
2024/03/17 01:07:47;;;;;;;2.28;1.95;;;;;;;;;;6245583;23;20197;-51
2024/03/17 01:10:14;;;;;;;2.28;1.70;;;;;;;;;;6245531;22;20638;-47
2024/03/17 01:12:41;;;;;;;2.25;1.70;;;;;;;;;;6245214;22;20173;-47
2024/03/17 01:15:10;;;;;;;3.17;2.22;;;;;;;;;;6245667;22;20205;-49
2024/03/17 01:17:39;;;;;;;2.10;1.90;;;;;;;;;;6245711;22;20193;-48
2024/03/17 01:20:08;;;;;;;4.95;1.80;;;;;;;;;;6245711;22;20181;-48
2024/03/17 01:22:35;;;;;;;1.25;1.23;;;;;;;;;;6245834;23;20201;-47
2024/03/17 01:25:02;;;;;;;2.40;1.90;;;;;;;;;;6245509;22;20207;-47
2024/03/17 01:27:29;;;;;;;2.10;1.60;;;;;;;;;;6244806;22;20527;-47
2024/03/17 01:29:57;;;;;;;1.65;1.50;;;;;;;;;;6245662;22;20183;-48
2024/03/17 01:32:23;;;;;;;1.52;1.42;;;;;;;;;;6244997;22;20176;-47
2024/03/17 01:34:52;;;;;;;1.42;1.33;;;;;;;;;;6245118;22;20212;-48
2024/03/17 01:37:18;;;;;;;2.17;1.65;;;;;;;;;;6245441;22;20199;-47
2024/03/17 01:39:46;;;;;;;2.00;1.67;;;;;;;;;;6244928;22;20172;-45
2024/03/17 01:42:12;;;;;;;1.70;1.60;;;;;;;;;;6245129;22;20692;-47
2024/03/17 01:44:40;;;;;;;1.50;1.40;;;;;;;;;;6244880;22;20185;-46
2024/03/17 01:47:06;;;;;;;2.50;1.50;;;;;;;;;;6245375;22;20695;-46
2024/03/17 01:49:34;;;;;;;2.17;1.98;;;;;;;;;;6245261;22;20177;-47
2024/03/17 01:52:03;;;;;;;1.80;1.65;;;;;;;;;;6245052;22;20176;-47
2024/03/17 01:54:31;;;;;;;2.97;1.75;;;;;;;;;;6245056;22;20646;-47
2024/03/17 01:56:57;;;;;;;1.88;1.67;;;;;;;;;;6245120;22;20193;-47
2024/03/17 01:59:25;;;;;;;2.85;2.15;;;;;;;;;;6244622;22;20181;-48
2024/03/17 02:01:52;;;;;;;2.03;1.77;;;;;;;;;;6245059;22;20197;-49
2024/03/17 02:04:21;;;;;;;2.63;1.67;;;;;;;;;;6244898;22;20173;-48
2024/03/17 02:06:47;;;;;;;1.30;1.15;;;;;;;;;;6245736;23;20208;-46
2024/03/17 02:09:18;;;;;;;1.70;1.60;;;;;;;;;;6245493;22;20179;-46
2024/03/17 02:11:45;;;;;;;2.00;1.67;;;;;;;;;;6245945;23;20200;-48
2024/03/17 02:14:14;;;;;;;1.42;1.30;;;;;;;;;;6245268;22;20697;-48
2024/03/17 02:16:40;;;;;;;1.27;1.27;;;;;;;;;;6245341;22;20173;-47
2024/03/17 02:19:08;;;;;;;1.50;1.10;;;;;;;;;;6244388;22;20181;-48
2024/03/17 02:21:35;;;;;;;4.68;2.17;;;;;;;;;;6244610;22;20231;-48
2024/03/17 02:24:03;;;;;;;1.42;1.33;;;;;;;;;;6244530;22;20279;-47
2024/03/17 02:26:30;;;;;;;1.25;1.15;;;;;;;;;;6244318;22;20248;-49
2024/03/17 02:28:57;;;;;;;1.55;1.10;;;;;;;;;;6244828;22;20197;-47
2024/03/17 02:31:24;;;;;;;3.20;1.50;;;;;;;;;;6244483;22;20782;-53
2024/03/17 02:33:51;;;;;;;1.75;1.17;;;;;;;;;;6244525;22;20649;-49
2024/03/17 02:36:19;;;;;;;1.35;1.25;;;;;;;;;;6244727;22;20233;-52
2024/03/17 02:41:32;;;;;;;0.82;0.82;;;;;;;;;;6244790;23;20236;-50
2024/03/17 02:44:00;;;;;;;2.05;1.10;;;;;;;;;;6244670;22;20229;-49
2024/03/17 02:46:27;;;;;;;1.63;1.20;;;;;;;;;;6244672;22;20188;-49
2024/03/17 02:48:56;;;;;;;1.10;1.00;;;;;;;;;;6244504;22;20255;-51
2024/03/17 02:51:24;;;;;;;1.20;1.10;;;;;;;;;;6244116;23;20177;-50
2024/03/17 02:53:52;;;;;;;3.30;1.23;;;;;;;;;;6243943;22;20183;-51
2024/03/17 02:56:20;;;;;;;1.98;1.33;;;;;;;;;;6244541;22;20179;-50
2024/03/17 02:58:51;;;;;;;1.42;1.33;;;;;;;;;;6244365;22;20280;-47
2024/03/17 03:01:19;;;;;;;2.08;1.20;;;;;;;;;;6244645;23;20221;-49
2024/03/17 03:03:48;;;;;;;1.20;1.10;;;;;;;;;;6244105;22;20232;-49
2024/03/17 03:06:19;;;;;;;1.40;1.30;;;;;;;;;;6244719;23;20173;-50
2024/03/17 03:08:49;;;;;;;2.70;1.55;;;;;;;;;;6244569;23;20225;-48
2024/03/17 03:11:18;;;;;;;1.30;1.20;;;;;;;;;;6244494;23;20212;-51
2024/03/17 03:13:46;;;;;;;1.98;1.40;;;;;;;;;;6244222;22;20180;-50
2024/03/17 03:16:16;;;;;;;1.63;1.50;;;;;;;;;;6244424;22;20216;-51
2024/03/17 03:18:44;;;;;;;2.38;1.42;;;;;;;;;;6243894;22;20272;-49
2024/03/17 03:21:12;;;;;;;1.48;1.38;;;;;;;;;;6243922;23;20177;-52
2024/03/17 03:23:40;;;;;;;1.55;1.45;;;;;;;;;;6243815;23;20197;-48
2024/03/17 03:26:08;;;;;;;1.83;1.50;;;;;;;;;;6244243;22;20508;-49
2024/03/17 03:28:38;;;;;;;3.72;2.08;;;;;;;;;;6244028;23;20203;-49
2024/03/17 03:31:08;;;;;;;2.15;1.40;;;;;;;;;;6243948;23;20211;-52
2024/03/17 03:33:36;;;;;;;1.30;1.20;;;;;;;;;;6244057;23;20169;-52
2024/03/17 03:36:10;;;;;;;1.10;1.10;;;;;;;;;;6244287;22;20231;-53
2024/03/17 03:38:38;;;;;;;1.10;1.10;;;;;;;;;;6243738;22;20197;-53
2024/03/17 03:41:10;;;;;;;3.50;1.92;;;;;;;;;;6244061;22;20177;-54
2024/03/17 03:43:38;;;;;;;2.17;1.55;;;;;;;;;;6243658;22;20197;-52
2024/03/17 03:46:06;;;;;;;1.65;1.42;;;;;;;;;;6243415;22;20183;-55
2024/03/17 03:48:34;;;;;;;2.33;2.13;;;;;;;;;;6243534;22;20199;-51
2024/03/17 03:51:05;;;;;;;1.60;1.50;;;;;;;;;;6244305;23;20686;-51
2024/03/17 03:53:33;;;;;;;4.45;2.05;;;;;;;;;;6243733;23;20184;-52
2024/03/17 03:56:01;;;;;;;4.10;2.00;;;;;;;;;;6244270;22;20173;-52
2024/03/17 03:58:29;;;;;;;2.28;1.70;;;;;;;;;;6243822;22;20196;-50
2024/03/17 04:00:57;;;;;;;1.70;1.60;;;;;;;;;;6244165;22;20235;-48
2024/03/17 04:03:25;;;;;;;2.08;1.77;;;;;;;;;;6243649;22;20284;-51
2024/03/17 04:05:53;;;;;;;2.35;1.60;;;;;;;;;;6240867;22;20173;-50
2024/03/17 04:08:24;;;;;;;2.10;1.90;;;;;;;;;;6243083;22;20842;-52
2024/03/17 04:10:52;;;;;;;2.42;1.83;;;;;;;;;;6244108;23;20501;-53
2024/03/17 04:13:20;;;;;;;2.28;2.08;;;;;;;;;;6243440;23;20185;-52
2024/03/17 04:15:47;;;;;;;2.47;2.22;;;;;;;;;;6243562;22;20176;-50
2024/03/17 04:18:15;;;;;;;2.55;2.20;;;;;;;;;;6242880;22;20193;-52
2024/03/17 04:20:43;;;;;;;2.92;2.10;;;;;;;;;;6243686;22;20177;-51
2024/03/17 04:23:10;;;;;;;2.88;2.55;;;;;;;;;;6243260;22;20200;-53
2024/03/17 04:25:43;;;;;;;2.65;2.45;;;;;;;;;;6243758;22;20175;-53
2024/03/17 04:28:10;;;;;;;3.22;2.45;;;;;;;;;;6243767;23;20197;-51
2024/03/17 04:30:37;;;;;;;6.57;2.28;;;;;;;;;;6243634;22;20577;-49
2024/03/17 04:33:06;;;;;;;3.35;1.73;;;;;;;;;;6242648;22;20195;-52
2024/03/17 04:35:37;;;;;;;4.15;2.25;;;;;;;;;;6242964;23;20180;-49
2024/03/17 04:38:05;;;;;;;2.92;2.20;;;;;;;;;;6243559;22;20193;-51
2024/03/17 04:40:33;;;;;;;2.00;1.83;;;;;;;;;;6243939;22;20180;-52
2024/03/17 04:43:01;;;;;;;2.10;1.90;;;;;;;;;;6243273;22;20541;-50
2024/03/17 04:45:29;;;;;;;3.45;1.88;;;;;;;;;;6243597;23;20177;-53
2024/03/17 04:47:56;;;;;;;2.35;1.88;;;;;;;;;;6243321;22;20193;-53
2024/03/17 04:50:24;;;;;;;2.58;2.22;;;;;;;;;;6243443;22;20200;-49
2024/03/17 04:52:52;;;;;;;2.47;2.28;;;;;;;;;;6242970;22;20181;-54
2024/03/17 04:55:19;;;;;;;2.55;2.35;;;;;;;;;;6243668;22;20177;-53
2024/03/17 04:57:46;;;;;;;2.30;2.08;;;;;;;;;;6243249;22;20197;-48
2024/03/17 05:00:17;;;;;;;2.95;2.70;;;;;;;;;;6243508;22;20182;-49
2024/03/17 05:02:45;;;;;;;4.40;2.70;;;;;;;;;;6243048;23;20168;-53
2024/03/17 05:05:13;;;;;;;3.78;3.47;;;;;;;;;;6242958;22;20224;-50
2024/03/17 05:07:40;;;;;;;4.13;2.95;;;;;;;;;;6243183;22;20204;-54
2024/03/17 05:10:08;;;;;;;3.47;2.50;;;;;;;;;;6243013;22;20174;-50
2024/03/17 05:12:36;;;;;;;2.78;2.58;;;;;;;;;;6242869;22;20252;-52
2024/03/17 05:15:05;;;;;;;2.92;2.72;;;;;;;;;;6244409;22;20171;-51
2024/03/17 05:17:35;;;;;;;4.97;3.45;;;;;;;;;;6245109;23;20209;-51
2024/03/17 05:20:03;;;;;;;3.47;2.85;;;;;;;;;;6245633;23;20252;-50
2024/03/17 05:22:30;;;;;;;3.20;2.90;;;;;;;;;;6245215;23;20641;-51
2024/03/17 05:24:58;;;;;;;2.63;2.42;;;;;;;;;;6244802;22;20197;-50
2024/03/17 05:27:25;;;;;;;3.15;2.67;;;;;;;;;;6244424;22;20197;-49
2024/03/17 05:29:53;;;;;;;3.13;2.85;;;;;;;;;;6245395;22;20173;-49
2024/03/17 05:32:20;;;;;;;2.50;2.30;;;;;;;;;;6244307;22;20179;-50
2024/03/17 05:34:49;;;;;;;3.30;3.00;;;;;;;;;;6244649;22;20644;-50
2024/03/17 05:37:16;;;;;;;2.40;2.20;;;;;;;;;;6244688;22;20685;-49
2024/03/17 05:39:43;;;;;;;2.63;2.42;;;;;;;;;;6244944;22;20626;-50
2024/03/17 05:42:11;;;;;;;2.70;2.50;;;;;;;;;;6244919;22;20255;-51
2024/03/17 05:44:49;;;;;;;5.82;3.88;;;;;;;;;;6244503;22;20276;-53
2024/03/17 05:47:18;;;;;;;3.13;2.90;;;;;;;;;;6244932;23;20197;-54
2024/03/17 05:49:47;;;;;;;3.70;3.40;;;;;;;;;;6245184;23;20177;-50
2024/03/17 05:52:15;;;;;;;4.05;3.30;;;;;;;;;;6244963;23;20177;-49
2024/03/17 05:54:42;;;;;;;2.92;2.40;;;;;;;;;;6244620;22;20192;-49
2024/03/17 05:57:12;;;;;;;2.70;2.50;;;;;;;;;;6244494;22;20193;-49
2024/03/17 05:59:39;;;;;;;2.63;2.42;;;;;;;;;;6244753;23;20177;-48
2024/03/17 06:02:07;;;;;;;2.58;2.17;;;;;;;;;;6244428;22;20180;-50
2024/03/17 06:04:38;;;;;;;2.42;2.22;;;;;;;;;;6244666;23;20188;-49
2024/03/17 06:07:07;;;;;;;2.08;1.98;;;;;;;;;;6244550;23;20200;-48
2024/03/17 06:09:34;;;;;;;4.07;3.08;;;;;;;;;;6244945;22;20179;-50
2024/03/17 06:12:02;;;;;;;2.97;2.78;;;;;;;;;;6244429;22;20177;-53
2024/03/17 06:14:29;;;;;;;2.40;2.20;;;;;;;;;;6243505;22;20247;-51
2024/03/17 06:16:57;;;;;;;2.90;2.67;;;;;;;;;;6244701;22;20204;-49
2024/03/17 06:19:24;;;;;;;2.28;2.08;;;;;;;;;;6244963;22;20173;-49
2024/03/17 06:21:52;;;;;;;2.05;1.85;;;;;;;;;;6244375;22;20680;-49
2024/03/17 06:24:20;;;;;;;3.05;2.70;;;;;;;;;;6244838;22;20173;-51
2024/03/17 06:26:48;;;;;;;3.17;2.88;;;;;;;;;;6243736;22;20174;-51
2024/03/17 06:29:16;;;;;;;2.20;2.00;;;;;;;;;;6244885;22;20175;-53
2024/03/17 06:31:45;;;;;;;1.92;1.83;;;;;;;;;;6243959;22;20231;-50
2024/03/17 06:34:14;;;;;;;2.33;2.13;;;;;;;;;;6244954;23;20576;-50
2024/03/17 06:36:43;;;;;;;2.35;2.08;;;;;;;;;;6244276;23;20181;-50
2024/03/17 06:39:10;;;;;;;4.10;2.58;;;;;;;;;;6245054;23;20252;-50
2024/03/17 06:41:39;;;;;;;2.30;2.10;;;;;;;;;;6244130;22;20173;-50
2024/03/17 06:44:06;;;;;;;3.28;2.45;;;;;;;;;;6244206;22;20177;-53
2024/03/17 06:46:34;;;;;;;5.57;3.03;;;;;;;;;;6244457;22;20224;-47
2024/03/17 06:49:01;;;;;;;3.15;2.85;;;;;;;;;;6244769;22;20627;-51
2024/03/17 06:51:28;;;;;;;3.15;2.60;;;;;;;;;;6244211;22;20173;-52
2024/03/17 06:53:56;;;;;;;2.70;2.42;;;;;;;;;;6244491;22;20187;-49
2024/03/17 06:56:24;;;;;;;2.45;2.25;;;;;;;;;;6244556;22;20177;-48
2024/03/17 06:58:53;;;;;;;2.55;2.35;;;;;;;;;;6244773;22;20208;-49
2024/03/17 07:01:21;;;;;;;2.65;2.10;;;;;;;;;;6245412;22;20234;-48
2024/03/17 07:03:48;;;;;;;2.58;2.38;;;;;;;;;;6242684;23;20176;-50
2024/03/17 07:06:16;;;;;;;2.17;2.05;;;;;;;;;;6244258;22;20192;-51
2024/03/17 07:08:43;;;;;;;2.97;2.78;;;;;;;;;;6244270;22;20203;-52
2024/03/17 07:11:11;;;;;;;3.80;3.38;;;;;;;;;;6244710;22;20173;-52
2024/03/17 07:13:41;;;;;;;3.65;3.28;;;;;;;;;;6243814;22;20173;-52
2024/03/17 07:16:10;;;;;;;3.88;3.55;;;;;;;;;;6244715;23;20179;-50
2024/03/17 07:18:38;;;;;;;2.70;2.50;;;;;;;;;;6243957;22;20201;-49
2024/03/17 07:21:09;;;;;;;3.20;2.90;;;;;;;;;;6244122;22;20637;-49
2024/03/17 07:23:37;;;;;;;3.40;3.10;;;;;;;;;;6244060;22;20153;-49
2024/03/17 07:26:05;;;;;;;3.97;3.13;;;;;;;;;;6244278;23;20192;-51
2024/03/17 07:28:33;;;;;;;4.68;3.67;;;;;;;;;;6243996;23;20201;-51
2024/03/17 07:31:01;;;;;;;4.50;4.10;;;;;;;;;;6244345;22;20169;-49
2024/03/17 07:33:30;;;;;;;4.45;3.85;;;;;;;;;;6243820;22;20177;-53
2024/03/17 07:36:02;;;;;;;5.07;3.90;;;;;;;;;;6244128;22;20189;-49
2024/03/17 07:38:31;;;;;;;4.15;3.75;;;;;;;;;;6244333;23;20665;-51
2024/03/17 07:41:01;;;;;;;4.22;3.20;;;;;;;;;;6244383;22;20459;-50
2024/03/17 07:43:28;;;;;;;4.15;3.75;;;;;;;;;;6243761;23;20180;-51
2024/03/17 07:46:01;;;;;;;4.05;3.20;;;;;;;;;;6243373;22;20196;-52
2024/03/17 07:48:29;;;;;;;4.00;3.58;;;;;;;;;;6244312;23;20196;-49
2024/03/17 07:50:58;;;;;;;5.50;3.50;;;;;;;;;;6244039;22;20646;-53
2024/03/17 07:53:26;;;;;;;4.13;3.80;;;;;;;;;;6243874;23;20187;-48
2024/03/17 07:56:05;;;;;;;4.82;3.17;;;;;;;;;;6244395;23;20173;-50
2024/03/17 07:58:33;;;;;;;4.18;3.53;;;;;;;;;;6243991;22;20192;-49
2024/03/17 08:01:02;;;;;;;3.47;3.17;;;;;;;;;;6244277;23;20173;-53
2024/03/17 08:03:33;;;;;;;3.60;3.30;;;;;;;;;;6244338;23;20641;-49
2024/03/17 08:06:01;;;;;;;3.72;3.25;;;;;;;;;;6244083;22;20192;-52
2024/03/17 08:08:29;;;;;;;4.82;3.53;;;;;;;;;;6244540;23;20224;-52
2024/03/17 08:10:57;;;;;;;5.72;4.45;;;;;;;;;;6243766;22;20179;-54
2024/03/17 08:13:24;;;;;;;8.60;5.20;;;;;;;;;;6243852;22;20200;-50
2024/03/17 08:15:58;;;;;;;6.65;4.50;;;;;;;;;;6244049;22;20247;-49
2024/03/17 08:18:26;;;;;;;6.28;4.93;;;;;;;;;;6243983;23;20203;-50
2024/03/17 08:20:56;;;;;;;6.93;4.28;;;;;;;;;;6244087;23;20176;-49
2024/03/17 08:23:23;;;;;;;6.07;5.55;;;;;;;;;;6243866;22;20515;-47
2024/03/17 08:25:54;;;;;;;5.32;4.82;;;;;;;;;;6244002;22;20227;-52
2024/03/17 08:28:22;;;;;;;4.95;4.45;;;;;;;;;;6244177;22;20197;-51
2024/03/17 08:30:54;;;;;;;4.38;4.00;;;;;;;;;;6244055;22;20749;-48
2024/03/17 08:33:22;;;;;;;5.03;4.47;;;;;;;;;;6244177;23;20512;-49
2024/03/17 08:35:59;;;;;;;5.20;4.70;;;;;;;;;;6244189;23;20515;-48
2024/03/17 08:38:28;;;;;;;5.13;4.63;;;;;;;;;;6243906;23;20217;-50
2024/03/17 08:40:56;;;;;;;6.68;5.28;;;;;;;;;;6244360;22;20540;-49
2024/03/17 08:43:24;;;;;;;6.28;5.70;;;;;;;;;;6243902;22;20173;-48
2024/03/17 08:46:01;;;;;;;7.65;6.95;;;;;;;;;;6243714;22;20204;-49
2024/03/17 08:48:30;;;;;;;6.93;6.22;;;;;;;;;;6244258;23;20590;-49
2024/03/17 08:50:59;;;;;;;5.53;5.03;;;;;;;;;;6246032;23;20172;-47
2024/03/17 08:53:27;;;;;;;6.60;5.90;;;;;;;;;;6245456;22;20184;-51
2024/03/17 08:55:55;;;;;;;8.73;6.50;;;;;;;;;;6245944;22;20173;-48
2024/03/17 08:58:22;;;;;;;7.68;5.80;;;;;;;;;;6245979;22;20192;-48
2024/03/17 09:00:50;;;;;;;6.00;5.50;;;;;;;;;;6245887;22;20197;-49
2024/03/17 09:03:18;;;;;;;5.95;5.45;;;;;;;;;;6245938;23;20256;-51
2024/03/17 09:05:48;;;;;;;6.32;5.75;;;;;;;;;;6246141;23;20735;-49
2024/03/17 09:08:20;;;;;;;6.10;5.45;;;;;;;;;;6245793;23;20199;-49
2024/03/17 09:10:49;;;;;;;9.52;6.57;;;;;;;;;;6246258;23;20598;-48
2024/03/17 09:13:18;;;;;;;5.55;5.05;;;;;;;;;;6246064;23;20622;-49
2024/03/17 09:15:52;;;;;;;6.75;5.93;;;;;;;;;;6245688;23;20261;-48
2024/03/17 09:18:20;;;;;;;4.28;3.88;;;;;;;;;;6245988;23;20522;-48
2024/03/17 09:20:47;;;;;;;5.20;4.35;;;;;;;;;;6245562;22;20172;-49
2024/03/17 09:23:15;;;;;;;6.63;4.93;;;;;;;;;;6244426;22;20176;-53
2024/03/17 09:25:43;;;;;;;4.63;4.22;;;;;;;;;;6245628;22;20810;-52
2024/03/17 09:28:11;;;;;;;4.70;3.78;;;;;;;;;;6245077;22;20207;-53
2024/03/17 09:30:39;;;;;;;4.07;3.67;;;;;;;;;;6245243;22;20177;-49
2024/03/17 09:33:07;;;;;;;4.72;4.03;;;;;;;;;;6245244;22;20179;-50
2024/03/17 09:35:34;;;;;;;4.75;4.35;;;;;;;;;;6244736;22;20665;-50
2024/03/17 09:38:01;;;;;;;4.80;4.40;;;;;;;;;;6244723;22;20211;-51
2024/03/17 09:40:29;;;;;;;4.97;4.35;;;;;;;;;;6244789;22;20173;-50
2024/03/17 09:42:58;;;;;;;6.50;5.90;;;;;;;;;;6244754;22;20642;-49
2024/03/17 09:45:28;;;;;;;5.45;4.80;;;;;;;;;;6245343;22;20207;-49
2024/03/17 09:47:56;;;;;;;5.55;4.68;;;;;;;;;;6245360;23;20211;-50
2024/03/17 09:50:24;;;;;;;4.80;4.35;;;;;;;;;;6245361;23;20260;-49
2024/03/17 09:52:51;;;;;;;5.80;5.13;;;;;;;;;;6244758;22;20173;-50
2024/03/17 09:55:19;;;;;;;7.55;5.10;;;;;;;;;;6244972;22;20687;-50
2024/03/17 09:57:46;;;;;;;6.93;4.78;;;;;;;;;;6244679;22;20197;-51
2024/03/17 10:00:16;;;;;;;4.93;4.53;;;;;;;;;;6244906;22;20177;-49
2024/03/17 10:02:45;;;;;;;5.10;4.63;;;;;;;;;;6246100;23;20173;-49
2024/03/17 10:05:23;;;;;;;4.70;4.28;;;;;;;;;;6245221;22;20180;-49
2024/03/17 10:07:51;;;;;;;5.10;4.65;;;;;;;;;;6244911;23;20203;-49
2024/03/17 10:10:19;;;;;;;4.82;4.43;;;;;;;;;;6245124;23;20176;-51
2024/03/17 10:12:51;;;;;;;4.90;4.50;;;;;;;;;;6244796;22;20196;-52
2024/03/17 10:15:21;;;;;;;4.93;4.47;;;;;;;;;;6245397;23;20767;-50
2024/03/17 10:17:48;;;;;;;6.82;5.18;;;;;;;;;;6245389;23;20193;-52
2024/03/17 10:20:18;;;;;;;5.47;4.97;;;;;;;;;;6244860;22;20177;-53
2024/03/17 10:23:03;;;;;;;6.38;5.45;;;;;;;;;;6244737;22;20188;-49
2024/03/17 10:25:32;;;;;;;6.35;5.40;;;;;;;;;;6245512;22;20161;-50
2024/03/17 10:28:00;;;;;;;5.90;5.32;;;;;;;;;;6244670;23;20197;-54
2024/03/17 10:30:30;;;;;;;5.63;5.07;;;;;;;;;;6245316;23;20173;-51
2024/03/17 10:33:00;;;;;;;5.75;5.25;;;;;;;;;;6244770;23;20256;-51
2024/03/17 10:35:32;;;;;;;4.70;4.30;;;;;;;;;;6244639;22;20173;-53
2024/03/17 10:38:01;;;;;;;5.28;4.78;;;;;;;;;;6244749;23;20189;-50
2024/03/17 10:40:30;;;;;;;6.75;5.88;;;;;;;;;;6244488;22;20257;-49
2024/03/17 10:42:59;;;;;;;6.68;6.07;;;;;;;;;;6244750;23;20204;-50
2024/03/17 10:45:30;;;;;;;5.68;5.18;;;;;;;;;;6244462;22;20187;-49
2024/03/17 10:48:00;;;;;;;5.10;4.43;;;;;;;;;;6244851;23;20200;-49
2024/03/17 10:50:32;;;;;;;6.53;4.68;;;;;;;;;;6244770;23;20261;-50
2024/03/17 10:53:04;;;;;;;5.78;5.20;;;;;;;;;;6244733;23;20161;-49
2024/03/17 10:55:40;;;;;;;5.72;5.22;;;;;;;;;;6243705;23;20161;-49
2024/03/17 10:58:21;;;;;;;5.10;4.30;;;;;;;;;;6243016;23;20193;-53
2024/03/17 11:00:52;;;;;;;5.93;4.63;;;;;;;;;;6243411;23;20164;-52
2024/03/17 11:03:21;;;;;;;6.93;4.55;;;;;;;;;;6243259;22;20231;-49
2024/03/17 11:05:50;;;;;;;6.25;5.45;;;;;;;;;;6243520;23;20552;-48
2024/03/17 11:08:19;;;;;;;8.50;4.05;;;;;;;;;;6243081;22;20201;-50
2024/03/17 11:10:54;;;;;;;5.15;4.65;;;;;;;;;;6243334;22;20177;-53
2024/03/17 11:13:25;;;;;;;5.93;5.20;;;;;;;;;;6242573;23;20183;-47
2024/03/17 11:15:55;;;;;;;5.07;4.43;;;;;;;;;;6243129;23;20177;-50
2024/03/17 11:18:38;;;;;;;5.65;5.00;;;;;;;;;;6242319;22;20193;-47
2024/03/17 11:21:25;;;;;;;5.32;4.93;;;;;;;;;;6243388;22;20645;-47
2024/03/17 11:24:01;;;;;;;8.50;5.13;;;;;;;;;;6243248;23;20161;-47
2024/03/17 11:26:31;;;;;;;5.38;4.88;;;;;;;;;;6243671;23;20675;-48
2024/03/17 11:29:00;;;;;;;6.10;5.55;;;;;;;;;;6243345;23;20280;-48
2024/03/17 11:31:55;;;;;;;6.50;5.07;;;;;;;;;;6243306;23;20179;-47
2024/03/17 11:34:33;;;;;;;4.88;4.40;;;;;;;;;;6221759;22;20177;-49
2024/03/17 11:37:03;;;;;;;3.42;3.13;;;;;;;;;;6242977;23;20197;-48
2024/03/17 11:39:58;;;;;;;4.25;3.67;;;;;;;;;;6243943;23;20252;-48
2024/03/17 11:42:28;;;;;;;4.65;4.25;;;;;;;;;;6243008;23;20164;-54
2024/03/17 11:44:58;;;;;;;5.18;4.68;;;;;;;;;;6242954;23;20173;-53
2024/03/17 11:47:36;;;;;;;4.32;3.95;;;;;;;;;;6243048;22;20201;-55
2024/03/17 11:50:05;;;;;;;3.67;3.38;;;;;;;;;;6243170;23;20161;-54
2024/03/17 11:52:34;;;;;;;5.00;4.20;;;;;;;;;;6243446;23;20634;-53
2024/03/17 11:55:00;;;;;;;5.07;3.88;;;;;;;;;;6196337;22;1089778;-50
2024/03/17 11:57:28;;;;;;;5.15;4.65;;;;;;;;;;6243704;22;20197;-49
2024/03/17 11:59:57;;;;;;;3.85;3.53;;;;;;;;;;6243590;22;20173;-50
2024/03/17 12:02:32;;;;;;;4.80;3.58;;;;;;;;;;6243171;22;20173;-51
2024/03/17 12:05:01;;;;;;;4.78;4.32;;;;;;;;;;6243487;23;20165;-49
2024/03/17 12:07:30;;;;;;;5.03;4.63;;;;;;;;;;6243396;22;20193;-52
2024/03/17 12:09:57;;;;;;;5.55;5.03;;;;;;;;;;6244162;23;20189;-50
2024/03/17 12:12:34;;;;;;;4.72;4.28;;;;;;;;;;6243147;22;20173;-52
2024/03/17 12:15:02;;;;;;;4.95;4.55;;;;;;;;;;6243740;23;20153;-49
2024/03/17 12:17:32;;;;;;;5.50;4.72;;;;;;;;;;6243884;23;20204;-50
2024/03/17 12:20:00;;;;;;;3.97;3.47;;;;;;;;;;6244346;23;20733;-50
2024/03/17 12:22:32;;;;;;;3.47;3.17;;;;;;;;;;6243651;22;20191;-53
2024/03/17 12:24:59;;;;;;;2.92;2.72;;;;;;;;;;6243809;23;20162;-52
2024/03/17 12:27:28;;;;;;;4.78;4.38;;;;;;;;;;6244024;22;20222;-50
2024/03/17 12:29:56;;;;;;;4.90;4.47;;;;;;;;;;6243746;22;20251;-51
2024/03/17 12:32:25;;;;;;;4.22;3.92;;;;;;;;;;6243632;22;20230;-51
2024/03/17 12:34:55;;;;;;;5.70;4.25;;;;;;;;;;6243546;23;20179;-50
2024/03/17 12:37:26;;;;;;;4.60;4.20;;;;;;;;;;6242953;22;20201;-54
2024/03/17 12:39:53;;;;;;;3.85;3.55;;;;;;;;;;6244387;23;20157;-50
2024/03/17 12:42:26;;;;;;;4.13;3.80;;;;;;;;;;6243785;22;20196;-50
2024/03/17 12:44:53;;;;;;;4.47;3.85;;;;;;;;;;6244138;23;20252;-50
2024/03/17 12:47:23;;;;;;;4.13;3.83;;;;;;;;;;6243717;22;20278;-50
2024/03/17 12:49:55;;;;;;;4.53;3.65;;;;;;;;;;6243569;22;20204;-50
2024/03/17 12:52:25;;;;;;;5.38;3.47;;;;;;;;;;6243928;23;20157;-50
2024/03/17 13:00:34;;;;;;;3.63;3.33;;;;;;;;;;6243603;23;20282;-50
2024/03/17 13:03:02;;;;;;;3.90;3.60;;;;;;;;;;6243389;23;20183;-49
2024/03/17 13:05:32;;;;;;;4.63;4.22;;;;;;;;;;6242975;22;20173;-51
2024/03/17 13:08:01;;;;;;;3.28;2.97;;;;;;;;;;6243780;23;20197;-52
2024/03/17 13:10:30;;;;;;;2.90;2.65;;;;;;;;;;6243755;23;20260;-54
2024/03/17 13:13:03;;;;;;;4.57;3.60;;;;;;;;;;6244509;23;20598;-49
2024/03/17 13:15:31;;;;;;;3.20;3.00;;;;;;;;;;6244008;23;20203;-49
2024/03/17 13:17:59;;;;;;;3.05;2.75;;;;;;;;;;6243724;23;20205;-48
2024/03/17 13:20:27;;;;;;;3.65;3.35;;;;;;;;;;6243451;22;20260;-52
2024/03/17 13:22:57;;;;;;;3.30;3.05;;;;;;;;;;6243633;22;20634;-49
2024/03/17 13:25:29;;;;;;;3.03;2.75;;;;;;;;;;6243831;22;20177;-48
2024/03/17 13:27:57;;;;;;;3.33;3.03;;;;;;;;;;6243996;23;20599;-48
2024/03/17 13:30:28;;;;;;;3.58;3.28;;;;;;;;;;6243944;23;20228;-48
2024/03/17 13:32:57;;;;;;;4.32;3.92;;;;;;;;;;6244811;23;20180;-49
2024/03/17 13:35:27;;;;;;;4.15;3.75;;;;;;;;;;6244365;23;20177;-50
2024/03/17 13:37:59;;;;;;;2.53;2.33;;;;;;;;;;6246465;22;20281;-52
2024/03/17 13:40:28;;;;;;;3.30;3.05;;;;;;;;;;6246210;23;20196;-53
2024/03/17 13:42:58;;;;;;;3.05;2.55;;;;;;;;;;6245204;22;20514;-53
2024/03/17 13:45:28;;;;;;;2.88;2.67;;;;;;;;;;6245924;23;20204;-49
2024/03/17 13:47:58;;;;;;;4.22;3.83;;;;;;;;;;6245869;23;20243;-49
2024/03/17 13:50:26;;;;;;;4.70;4.30;;;;;;;;;;6246288;22;20576;-50
2024/03/17 13:52:56;;;;;;;4.05;3.75;;;;;;;;;;6245479;22;20506;-50
2024/03/17 13:55:25;;;;;;;3.70;3.40;;;;;;;;;;6246121;22;20169;-49
2024/03/17 13:57:56;;;;;;;3.72;3.42;;;;;;;;;;6246457;23;20193;-53
2024/03/17 14:00:25;;;;;;;3.88;3.58;;;;;;;;;;6246036;22;20252;-52
2024/03/17 14:02:55;;;;;;;3.53;3.22;;;;;;;;;;6246080;22;20195;-48
2024/03/17 14:05:25;;;;;;;2.60;2.40;;;;;;;;;;6245403;23;20169;-50
2024/03/17 14:07:56;;;;;;;3.40;3.10;;;;;;;;;;6245983;22;20193;-52
2024/03/17 14:10:25;;;;;;;3.78;3.47;;;;;;;;;;6246333;23;20185;-51
2024/03/17 14:12:53;;;;;;;4.22;3.92;;;;;;;;;;6246499;23;20179;-49
2024/03/17 14:15:21;;;;;;;3.80;3.50;;;;;;;;;;6246149;22;20181;-50
2024/03/17 14:17:50;;;;;;;3.10;2.90;;;;;;;;;;6246505;23;20702;-49
2024/03/17 14:20:19;;;;;;;3.97;3.58;;;;;;;;;;6246964;23;20223;-50
2024/03/17 14:22:53;;;;;;;3.80;3.25;;;;;;;;;;6245912;22;20177;-48
2024/03/17 14:25:22;;;;;;;5.45;3.28;;;;;;;;;;6246449;23;20168;-51
2024/03/17 14:27:50;;;;;;;3.70;3.40;;;;;;;;;;6246516;22;20734;-49
2024/03/17 14:30:20;;;;;;;2.80;2.60;;;;;;;;;;6246298;22;20219;-50
2024/03/17 14:32:48;;;;;;;2.90;2.70;;;;;;;;;;6245730;23;20207;-49
2024/03/17 14:35:17;;;;;;;2.97;2.78;;;;;;;;;;6246351;23;20470;-50
2024/03/17 14:37:47;;;;;;;3.47;3.17;;;;;;;;;;6244967;23;20803;-50
2024/03/17 14:40:20;;;;;;;3.72;3.42;;;;;;;;;;6244808;23;20164;-49
2024/03/17 14:42:50;;;;;;;3.88;3.58;;;;;;;;;;6246032;23;20291;-53
2024/03/17 14:45:18;;;;;;;3.78;3.35;;;;;;;;;;6245094;22;20173;-55
2024/03/17 14:47:45;;;;;;;4.22;3.80;;;;;;;;;;6244420;22;20193;-50
2024/03/17 14:50:13;;;;;;;4.65;4.25;;;;;;;;;;6244551;22;20684;-51
2024/03/17 14:52:41;;;;;;;3.42;3.13;;;;;;;;;;6244678;22;20183;-51
2024/03/17 14:55:10;;;;;;;3.72;3.42;;;;;;;;;;6244385;22;20243;-50
2024/03/17 14:57:38;;;;;;;4.03;3.63;;;;;;;;;;6245001;23;20196;-55
2024/03/17 15:00:16;;;;;;;4.20;3.80;;;;;;;;;;6245025;23;20223;-52
2024/03/17 15:02:43;;;;;;;4.15;3.75;;;;;;;;;;6244792;23;20161;-52